sensor_id;sensor_type;location;lat;lon;timestamp;temperature;humidity
40828;DHT22;26549;50.918;5.338;2022-11-04T00:02:09;12.30;99.90
40828;DHT22;26549;50.918;5.338;2022-11-04T00:04:35;12.30;99.90
40828;DHT22;26549;50.918;5.338;2022-11-04T00:07:04;12.30;99.90
40828;DHT22;26549;50.918;5.338;2022-11-04T00:09:50;12.00;99.90
40828;DHT22;26549;50.918;5.338;2022-11-04T00:12:17;12.00;99.90
40828;DHT22;26549;50.918;5.338;2022-11-04T00:14:53;11.90;99.90
40828;DHT22;26549;50.918;5.338;2022-11-04T00:17:39;11.90;99.90
40828;DHT22;26549;50.918;5.338;2022-11-04T00:20:05;11.90;99.90
40828;DHT22;26549;50.918;5.338;2022-11-04T00:22:50;11.80;99.90
40828;DHT22;26549;50.918;5.338;2022-11-04T00:26:00;12.00;99.90
40828;DHT22;26549;50.918;5.338;2022-11-04T00:28:45;11.80;99.90
40828;DHT22;26549;50.918;5.338;2022-11-04T00:31:15;11.80;99.90
40828;DHT22;26549;50.918;5.338;2022-11-04T00:34:02;11.90;99.90
40828;DHT22;26549;50.918;5.338;2022-11-04T00:36:28;11.90;99.90
40828;DHT22;26549;50.918;5.338;2022-11-04T00:38:54;12.10;99.90
40828;DHT22;26549;50.918;5.338;2022-11-04T00:41:22;11.80;99.90
40828;DHT22;26549;50.918;5.338;2022-11-04T00:44:01;11.70;99.90
40828;DHT22;26549;50.918;5.338;2022-11-04T00:46:30;11.70;99.90
40828;DHT22;26549;50.918;5.338;2022-11-04T00:49:02;11.80;99.90
40828;DHT22;26549;50.918;5.338;2022-11-04T00:51:29;11.70;99.90
40828;DHT22;26549;50.918;5.338;2022-11-04T00:53:55;11.60;99.90
40828;DHT22;26549;50.918;5.338;2022-11-04T00:56:24;11.50;99.90
40828;DHT22;26549;50.918;5.338;2022-11-04T00:58:50;11.50;99.90
40828;DHT22;26549;50.918;5.338;2022-11-04T01:01:18;11.60;99.90
40828;DHT22;26549;50.918;5.338;2022-11-04T01:03:48;11.60;99.90
40828;DHT22;26549;50.918;5.338;2022-11-04T01:06:14;11.50;99.90
40828;DHT22;26549;50.918;5.338;2022-11-04T01:08:40;11.50;99.90
40828;DHT22;26549;50.918;5.338;2022-11-04T01:11:10;11.40;99.90
40828;DHT22;26549;50.918;5.338;2022-11-04T01:13:39;11.50;99.90
40828;DHT22;26549;50.918;5.338;2022-11-04T01:16:07;11.30;99.90
40828;DHT22;26549;50.918;5.338;2022-11-04T01:18:33;11.30;99.90
40828;DHT22;26549;50.918;5.338;2022-11-04T01:21:02;11.30;99.90
40828;DHT22;26549;50.918;5.338;2022-11-04T01:23:30;11.30;99.90
40828;DHT22;26549;50.918;5.338;2022-11-04T01:25:55;11.40;99.90
40828;DHT22;26549;50.918;5.338;2022-11-04T01:28:23;11.50;99.90
40828;DHT22;26549;50.918;5.338;2022-11-04T01:30:49;11.40;99.90
40828;DHT22;26549;50.918;5.338;2022-11-04T01:33:15;11.40;99.90
40828;DHT22;26549;50.918;5.338;2022-11-04T01:35:43;11.40;99.90
40828;DHT22;26549;50.918;5.338;2022-11-04T01:38:09;11.50;99.90
40828;DHT22;26549;50.918;5.338;2022-11-04T01:40:37;11.50;99.90
40828;DHT22;26549;50.918;5.338;2022-11-04T01:43:16;11.50;99.90
40828;DHT22;26549;50.918;5.338;2022-11-04T01:46:02;11.50;99.90
40828;DHT22;26549;50.918;5.338;2022-11-04T01:48:30;11.40;99.90
40828;DHT22;26549;50.918;5.338;2022-11-04T01:50:59;11.50;99.90
40828;DHT22;26549;50.918;5.338;2022-11-04T01:53:34;11.40;99.90
40828;DHT22;26549;50.918;5.338;2022-11-04T01:56:09;11.30;99.90
40828;DHT22;26549;50.918;5.338;2022-11-04T01:58:51;11.30;99.90
40828;DHT22;26549;50.918;5.338;2022-11-04T02:01:17;11.40;99.90
40828;DHT22;26549;50.918;5.338;2022-11-04T02:03:52;11.50;99.90
40828;DHT22;26549;50.918;5.338;2022-11-04T02:06:21;11.50;99.90
40828;DHT22;26549;50.918;5.338;2022-11-04T02:08:47;11.40;99.90
40828;DHT22;26549;50.918;5.338;2022-11-04T02:11:14;11.50;99.90
40828;DHT22;26549;50.918;5.338;2022-11-04T02:14:00;11.40;99.90
40828;DHT22;26549;50.918;5.338;2022-11-04T02:16:43;11.40;99.90
40828;DHT22;26549;50.918;5.338;2022-11-04T02:19:39;11.30;99.90
40828;DHT22;26549;50.918;5.338;2022-11-04T02:30:35;11.20;99.90
40828;DHT22;26549;50.918;5.338;2022-11-04T02:36:06;11.40;99.90
40828;DHT22;26549;50.918;5.338;2022-11-04T02:38:49;11.40;99.90
40828;DHT22;26549;50.918;5.338;2022-11-04T02:47:14;11.30;99.90
40828;DHT22;26549;50.918;5.338;2022-11-04T02:53:09;11.30;99.90
40828;DHT22;26549;50.918;5.338;2022-11-04T02:55:48;11.20;99.90
40828;DHT22;26549;50.918;5.338;2022-11-04T02:58:21;11.10;99.90
40828;DHT22;26549;50.918;5.338;2022-11-04T03:00:50;11.10;99.90
40828;DHT22;26549;50.918;5.338;2022-11-04T03:03:20;11.20;99.90
40828;DHT22;26549;50.918;5.338;2022-11-04T03:05:51;11.20;99.90
40828;DHT22;26549;50.918;5.338;2022-11-04T03:08:40;11.20;99.90
40828;DHT22;26549;50.918;5.338;2022-11-04T03:11:20;11.20;99.90
40828;DHT22;26549;50.918;5.338;2022-11-04T03:13:58;11.20;99.90
40828;DHT22;26549;50.918;5.338;2022-11-04T03:16:43;11.10;99.90
40828;DHT22;26549;50.918;5.338;2022-11-04T03:24:40;11.20;99.90
40828;DHT22;26549;50.918;5.338;2022-11-04T03:27:26;11.20;99.90
40828;DHT22;26549;50.918;5.338;2022-11-04T03:35:24;11.00;99.90
40828;DHT22;26549;50.918;5.338;2022-11-04T03:37:56;10.90;99.90
40828;DHT22;26549;50.918;5.338;2022-11-04T03:40:22;10.90;99.90
40828;DHT22;26549;50.918;5.338;2022-11-04T03:42:58;10.80;99.90
40828;DHT22;26549;50.918;5.338;2022-11-04T03:45:27;11.10;99.90
40828;DHT22;26549;50.918;5.338;2022-11-04T03:47:56;11.00;99.90
40828;DHT22;26549;50.918;5.338;2022-11-04T03:50:30;11.10;99.90
40828;DHT22;26549;50.918;5.338;2022-11-04T03:52:59;10.90;99.90
40828;DHT22;26549;50.918;5.338;2022-11-04T03:58:27;11.10;99.90
40828;DHT22;26549;50.918;5.338;2022-11-04T04:06:34;11.20;99.90
40828;DHT22;26549;50.918;5.338;2022-11-04T04:09:12;11.10;99.90
40828;DHT22;26549;50.918;5.338;2022-11-04T04:11:53;11.00;99.90
40828;DHT22;26549;50.918;5.338;2022-11-04T04:20:04;11.00;99.90
40828;DHT22;26549;50.918;5.338;2022-11-04T04:22:36;11.10;99.90
40828;DHT22;26549;50.918;5.338;2022-11-04T04:25:06;11.20;99.90
40828;DHT22;26549;50.918;5.338;2022-11-04T04:27:55;11.10;99.90
40828;DHT22;26549;50.918;5.338;2022-11-04T04:30:22;11.30;99.90
40828;DHT22;26549;50.918;5.338;2022-11-04T04:32:58;11.30;99.90
40828;DHT22;26549;50.918;5.338;2022-11-04T04:35:28;11.30;99.90
40828;DHT22;26549;50.918;5.338;2022-11-04T04:38:30;11.30;99.90
40828;DHT22;26549;50.918;5.338;2022-11-04T04:44:02;11.30;99.90
40828;DHT22;26549;50.918;5.338;2022-11-04T04:46:48;11.20;99.90
40828;DHT22;26549;50.918;5.338;2022-11-04T04:49:18;11.20;99.90
40828;DHT22;26549;50.918;5.338;2022-11-04T04:51:46;11.20;99.90
40828;DHT22;26549;50.918;5.338;2022-11-04T04:54:12;11.20;99.90
40828;DHT22;26549;50.918;5.338;2022-11-04T04:56:38;11.10;99.90
40828;DHT22;26549;50.918;5.338;2022-11-04T04:59:04;11.10;99.90
40828;DHT22;26549;50.918;5.338;2022-11-04T05:01:31;11.30;99.90
40828;DHT22;26549;50.918;5.338;2022-11-04T05:03:57;11.30;99.90
40828;DHT22;26549;50.918;5.338;2022-11-04T05:06:23;11.30;99.90
40828;DHT22;26549;50.918;5.338;2022-11-04T05:08:49;11.20;99.90
40828;DHT22;26549;50.918;5.338;2022-11-04T05:11:15;11.30;99.90
40828;DHT22;26549;50.918;5.338;2022-11-04T05:13:41;11.30;99.90
40828;DHT22;26549;50.918;5.338;2022-11-04T05:16:09;11.30;99.90
40828;DHT22;26549;50.918;5.338;2022-11-04T05:18:36;11.20;99.90
40828;DHT22;26549;50.918;5.338;2022-11-04T05:21:06;11.40;99.90
40828;DHT22;26549;50.918;5.338;2022-11-04T05:23:34;11.10;99.90
40828;DHT22;26549;50.918;5.338;2022-11-04T05:26:01;11.20;99.90
40828;DHT22;26549;50.918;5.338;2022-11-04T05:28:30;11.30;99.90
40828;DHT22;26549;50.918;5.338;2022-11-04T05:30:56;11.30;99.90
40828;DHT22;26549;50.918;5.338;2022-11-04T05:33:21;11.30;99.90
40828;DHT22;26549;50.918;5.338;2022-11-04T05:35:47;11.40;99.90
40828;DHT22;26549;50.918;5.338;2022-11-04T05:38:13;11.40;99.90
40828;DHT22;26549;50.918;5.338;2022-11-04T05:40:38;11.30;99.90
40828;DHT22;26549;50.918;5.338;2022-11-04T05:43:04;11.50;99.90
40828;DHT22;26549;50.918;5.338;2022-11-04T05:45:31;11.40;99.90
40828;DHT22;26549;50.918;5.338;2022-11-04T05:47:58;11.40;99.90
40828;DHT22;26549;50.918;5.338;2022-11-04T05:50:24;11.40;99.90
40828;DHT22;26549;50.918;5.338;2022-11-04T05:52:50;11.40;99.90
40828;DHT22;26549;50.918;5.338;2022-11-04T05:55:15;11.50;99.90
40828;DHT22;26549;50.918;5.338;2022-11-04T05:57:41;11.40;99.90
40828;DHT22;26549;50.918;5.338;2022-11-04T06:00:11;11.50;99.90
40828;DHT22;26549;50.918;5.338;2022-11-04T06:02:37;11.50;99.90
40828;DHT22;26549;50.918;5.338;2022-11-04T06:05:06;11.60;99.90
40828;DHT22;26549;50.918;5.338;2022-11-04T06:07:35;11.50;99.90
40828;DHT22;26549;50.918;5.338;2022-11-04T06:10:01;11.50;99.90
40828;DHT22;26549;50.918;5.338;2022-11-04T06:12:29;11.60;99.90
40828;DHT22;26549;50.918;5.338;2022-11-04T06:14:55;11.60;99.90
40828;DHT22;26549;50.918;5.338;2022-11-04T06:17:24;11.50;99.90
40828;DHT22;26549;50.918;5.338;2022-11-04T06:19:49;11.40;99.90
40828;DHT22;26549;50.918;5.338;2022-11-04T06:22:17;11.50;99.90
40828;DHT22;26549;50.918;5.338;2022-11-04T06:24:44;11.50;99.90
40828;DHT22;26549;50.918;5.338;2022-11-04T06:27:10;11.60;99.90
40828;DHT22;26549;50.918;5.338;2022-11-04T06:29:36;11.70;99.90
40828;DHT22;26549;50.918;5.338;2022-11-04T06:32:13;11.60;99.90
40828;DHT22;26549;50.918;5.338;2022-11-04T06:34:39;11.60;99.90
40828;DHT22;26549;50.918;5.338;2022-11-04T06:37:05;11.50;99.90
40828;DHT22;26549;50.918;5.338;2022-11-04T06:39:31;11.50;99.90
40828;DHT22;26549;50.918;5.338;2022-11-04T06:41:57;11.70;99.90
40828;DHT22;26549;50.918;5.338;2022-11-04T06:44:23;11.40;99.90
40828;DHT22;26549;50.918;5.338;2022-11-04T06:46:49;11.50;99.90
40828;DHT22;26549;50.918;5.338;2022-11-04T06:49:18;11.60;99.90
40828;DHT22;26549;50.918;5.338;2022-11-04T06:51:45;11.70;99.90
40828;DHT22;26549;50.918;5.338;2022-11-04T06:54:12;11.90;99.90
40828;DHT22;26549;50.918;5.338;2022-11-04T06:56:38;11.90;99.90
40828;DHT22;26549;50.918;5.338;2022-11-04T06:59:04;11.90;99.90
40828;DHT22;26549;50.918;5.338;2022-11-04T07:01:33;11.70;99.90
40828;DHT22;26549;50.918;5.338;2022-11-04T07:03:59;11.60;99.90
40828;DHT22;26549;50.918;5.338;2022-11-04T07:06:26;11.70;99.90
40828;DHT22;26549;50.918;5.338;2022-11-04T07:08:57;11.50;99.90
40828;DHT22;26549;50.918;5.338;2022-11-04T07:11:25;11.70;99.90
40828;DHT22;26549;50.918;5.338;2022-11-04T07:13:51;11.70;99.90
40828;DHT22;26549;50.918;5.338;2022-11-04T07:16:17;11.70;99.90
40828;DHT22;26549;50.918;5.338;2022-11-04T07:18:44;11.60;99.90
40828;DHT22;26549;50.918;5.338;2022-11-04T07:21:10;11.70;99.90
40828;DHT22;26549;50.918;5.338;2022-11-04T07:23:37;11.90;99.90
40828;DHT22;26549;50.918;5.338;2022-11-04T07:26:05;12.10;99.90
40828;DHT22;26549;50.918;5.338;2022-11-04T07:28:32;12.10;99.90
40828;DHT22;26549;50.918;5.338;2022-11-04T07:30:59;12.20;99.90
40828;DHT22;26549;50.918;5.338;2022-11-04T07:33:26;12.20;99.90
40828;DHT22;26549;50.918;5.338;2022-11-04T07:35:53;12.20;99.90
40828;DHT22;26549;50.918;5.338;2022-11-04T07:38:20;12.20;99.90
40828;DHT22;26549;50.918;5.338;2022-11-04T07:40:46;12.30;99.90
40828;DHT22;26549;50.918;5.338;2022-11-04T07:43:12;12.10;99.90
40828;DHT22;26549;50.918;5.338;2022-11-04T07:45:41;12.00;99.90
40828;DHT22;26549;50.918;5.338;2022-11-04T07:48:07;12.00;99.90
40828;DHT22;26549;50.918;5.338;2022-11-04T07:50:36;12.20;99.90
40828;DHT22;26549;50.918;5.338;2022-11-04T07:53:03;12.10;99.90
40828;DHT22;26549;50.918;5.338;2022-11-04T07:55:29;12.20;99.90
40828;DHT22;26549;50.918;5.338;2022-11-04T07:57:55;12.00;99.90
40828;DHT22;26549;50.918;5.338;2022-11-04T08:00:21;12.00;99.90
40828;DHT22;26549;50.918;5.338;2022-11-04T08:02:47;12.10;99.90
40828;DHT22;26549;50.918;5.338;2022-11-04T08:05:13;12.10;99.90
40828;DHT22;26549;50.918;5.338;2022-11-04T08:07:40;12.10;99.90
40828;DHT22;26549;50.918;5.338;2022-11-04T08:10:07;12.10;99.90
40828;DHT22;26549;50.918;5.338;2022-11-04T08:12:34;12.20;99.90
40828;DHT22;26549;50.918;5.338;2022-11-04T08:15:02;12.20;99.90
40828;DHT22;26549;50.918;5.338;2022-11-04T08:17:29;12.20;99.90
40828;DHT22;26549;50.918;5.338;2022-11-04T08:19:55;12.30;99.90
40828;DHT22;26549;50.918;5.338;2022-11-04T08:22:21;12.40;99.90
40828;DHT22;26549;50.918;5.338;2022-11-04T08:24:47;12.40;99.90
40828;DHT22;26549;50.918;5.338;2022-11-04T08:27:14;12.40;99.90
40828;DHT22;26549;50.918;5.338;2022-11-04T08:29:40;12.50;99.90
40828;DHT22;26549;50.918;5.338;2022-11-04T08:32:06;12.50;99.90
40828;DHT22;26549;50.918;5.338;2022-11-04T08:34:33;12.60;99.90
40828;DHT22;26549;50.918;5.338;2022-11-04T08:36:59;12.60;99.90
40828;DHT22;26549;50.918;5.338;2022-11-04T08:39:26;12.70;99.90
40828;DHT22;26549;50.918;5.338;2022-11-04T08:41:52;12.60;99.90
40828;DHT22;26549;50.918;5.338;2022-11-04T08:44:18;12.50;99.90
40828;DHT22;26549;50.918;5.338;2022-11-04T08:46:45;12.50;99.90
40828;DHT22;26549;50.918;5.338;2022-11-04T08:49:14;12.50;99.90
40828;DHT22;26549;50.918;5.338;2022-11-04T08:51:43;12.50;99.90
40828;DHT22;26549;50.918;5.338;2022-11-04T08:54:09;12.50;99.90
40828;DHT22;26549;50.918;5.338;2022-11-04T08:56:38;12.50;99.90
40828;DHT22;26549;50.918;5.338;2022-11-04T08:59:05;12.80;99.90
40828;DHT22;26549;50.918;5.338;2022-11-04T09:01:34;12.90;99.90
40828;DHT22;26549;50.918;5.338;2022-11-04T09:04:01;12.80;99.90
40828;DHT22;26549;50.918;5.338;2022-11-04T09:06:36;12.70;99.90
40828;DHT22;26549;50.918;5.338;2022-11-04T09:09:04;12.80;99.90
40828;DHT22;26549;50.918;5.338;2022-11-04T09:11:37;12.80;99.90
40828;DHT22;26549;50.918;5.338;2022-11-04T09:14:04;13.00;99.90
40828;DHT22;26549;50.918;5.338;2022-11-04T09:16:31;13.10;99.90
40828;DHT22;26549;50.918;5.338;2022-11-04T09:18:58;12.90;99.90
40828;DHT22;26549;50.918;5.338;2022-11-04T09:21:26;12.80;99.90
40828;DHT22;26549;50.918;5.338;2022-11-04T09:23:52;12.90;99.90
40828;DHT22;26549;50.918;5.338;2022-11-04T09:26:20;13.00;99.90
40828;DHT22;26549;50.918;5.338;2022-11-04T09:28:47;13.10;99.90
40828;DHT22;26549;50.918;5.338;2022-11-04T09:31:17;13.20;99.90
40828;DHT22;26549;50.918;5.338;2022-11-04T09:33:47;12.80;99.90
40828;DHT22;26549;50.918;5.338;2022-11-04T09:36:15;12.90;99.90
40828;DHT22;26549;50.918;5.338;2022-11-04T09:38:42;12.90;99.90
40828;DHT22;26549;50.918;5.338;2022-11-04T09:46:36;13.20;99.90
40828;DHT22;26549;50.918;5.338;2022-11-04T09:49:04;13.20;99.90
40828;DHT22;26549;50.918;5.338;2022-11-04T09:51:31;13.20;99.90
40828;DHT22;26549;50.918;5.338;2022-11-04T09:54:00;13.10;99.90
40828;DHT22;26549;50.918;5.338;2022-11-04T09:56:36;13.30;99.90
40828;DHT22;26549;50.918;5.338;2022-11-04T09:59:04;13.40;99.90
40828;DHT22;26549;50.918;5.338;2022-11-04T10:04:46;13.40;99.90
40828;DHT22;26549;50.918;5.338;2022-11-04T10:07:24;13.30;99.90
40828;DHT22;26549;50.918;5.338;2022-11-04T10:10:21;13.30;99.90
40828;DHT22;26549;50.918;5.338;2022-11-04T10:15:51;13.10;99.90
40828;DHT22;26549;50.918;5.338;2022-11-04T10:21:22;13.30;99.90
40828;DHT22;26549;50.918;5.338;2022-11-04T10:26:57;13.40;99.90
40828;DHT22;26549;50.918;5.338;2022-11-04T10:31:51;13.90;99.90
40828;DHT22;26549;50.918;5.338;2022-11-04T10:34:34;14.10;99.90
40828;DHT22;26549;50.918;5.338;2022-11-04T10:37:01;14.20;99.90
40828;DHT22;26549;50.918;5.338;2022-11-04T10:39:34;14.30;99.90
40828;DHT22;26549;50.918;5.338;2022-11-04T10:42:03;14.50;99.90
40828;DHT22;26549;50.918;5.338;2022-11-04T10:44:32;14.50;99.90
40828;DHT22;26549;50.918;5.338;2022-11-04T10:47:38;14.60;99.90
40828;DHT22;26549;50.918;5.338;2022-11-04T10:50:20;14.80;99.90
40828;DHT22;26549;50.918;5.338;2022-11-04T10:52:47;14.90;99.90
40828;DHT22;26549;50.918;5.338;2022-11-04T10:55:40;15.00;99.90
40828;DHT22;26549;50.918;5.338;2022-11-04T10:58:16;15.10;99.90
40828;DHT22;26549;50.918;5.338;2022-11-04T11:00:42;14.90;99.90
40828;DHT22;26549;50.918;5.338;2022-11-04T11:03:37;14.80;99.90
40828;DHT22;26549;50.918;5.338;2022-11-04T11:06:30;14.70;99.90
40828;DHT22;26549;50.918;5.338;2022-11-04T11:09:00;14.70;99.90
40828;DHT22;26549;50.918;5.338;2022-11-04T11:11:59;14.70;99.90
40828;DHT22;26549;50.918;5.338;2022-11-04T11:14:45;14.60;99.90
40828;DHT22;26549;50.918;5.338;2022-11-04T11:17:24;14.70;99.90
40828;DHT22;26549;50.918;5.338;2022-11-04T11:20:21;14.70;99.90
40828;DHT22;26549;50.918;5.338;2022-11-04T11:22:49;14.60;99.90
40828;DHT22;26549;50.918;5.338;2022-11-04T11:25:29;14.60;99.90
40828;DHT22;26549;50.918;5.338;2022-11-04T11:31:56;14.40;99.90
40828;DHT22;26549;50.918;5.338;2022-11-04T11:34:43;14.50;99.90
40828;DHT22;26549;50.918;5.338;2022-11-04T11:37:30;14.40;99.90
40828;DHT22;26549;50.918;5.338;2022-11-04T11:40:02;14.40;99.90
40828;DHT22;26549;50.918;5.338;2022-11-04T11:42:34;14.30;99.90
40828;DHT22;26549;50.918;5.338;2022-11-04T11:45:15;14.20;99.90
40828;DHT22;26549;50.918;5.338;2022-11-04T11:47:44;14.40;99.90
40828;DHT22;26549;50.918;5.338;2022-11-04T11:53:14;14.20;99.90
40828;DHT22;26549;50.918;5.338;2022-11-04T11:55:46;14.00;99.90
40828;DHT22;26549;50.918;5.338;2022-11-04T12:04:52;14.10;99.90
40828;DHT22;26549;50.918;5.338;2022-11-04T12:11:49;14.20;99.90
40828;DHT22;26549;50.918;5.338;2022-11-04T12:20:44;14.30;99.90
40828;DHT22;26549;50.918;5.338;2022-11-04T12:30:18;14.50;99.90
40828;DHT22;26549;50.918;5.338;2022-11-04T12:33:30;14.50;99.90
40828;DHT22;26549;50.918;5.338;2022-11-04T12:36:29;14.70;99.90
40828;DHT22;26549;50.918;5.338;2022-11-04T12:39:34;14.70;99.90
40828;DHT22;26549;50.918;5.338;2022-11-04T12:42:49;14.80;99.90
40828;DHT22;26549;50.918;5.338;2022-11-04T12:47:48;14.80;99.90
40828;DHT22;26549;50.918;5.338;2022-11-04T12:56:19;14.90;99.90
40828;DHT22;26549;50.918;5.338;2022-11-04T13:01:55;15.00;99.90
40828;DHT22;26549;50.918;5.338;2022-11-04T13:04:41;15.00;99.90
40828;DHT22;26549;50.918;5.338;2022-11-04T13:07:24;15.00;99.90
40828;DHT22;26549;50.918;5.338;2022-11-04T13:10:08;15.00;99.90
40828;DHT22;26549;50.918;5.338;2022-11-04T13:12:42;15.00;99.90
40828;DHT22;26549;50.918;5.338;2022-11-04T13:15:30;15.10;99.90
40828;DHT22;26549;50.918;5.338;2022-11-04T13:18:15;15.20;99.90
40828;DHT22;26549;50.918;5.338;2022-11-04T13:20:57;15.00;99.90
40828;DHT22;26549;50.918;5.338;2022-11-04T13:26:48;15.00;99.90
40828;DHT22;26549;50.918;5.338;2022-11-04T13:32:46;14.70;99.90
40828;DHT22;26549;50.918;5.338;2022-11-04T13:49:33;14.40;99.90
40828;DHT22;26549;50.918;5.338;2022-11-04T13:52:30;14.40;99.90
40828;DHT22;26549;50.918;5.338;2022-11-04T13:55:38;14.20;99.90
40828;DHT22;26549;50.918;5.338;2022-11-04T13:58:26;14.00;99.90
40828;DHT22;26549;50.918;5.338;2022-11-04T14:04:17;13.90;99.90
40828;DHT22;26549;50.918;5.338;2022-11-04T14:06:54;13.80;99.90
40828;DHT22;26549;50.918;5.338;2022-11-04T14:12:29;13.70;99.90
40828;DHT22;26549;50.918;5.338;2022-11-04T14:15:07;13.80;99.90
40828;DHT22;26549;50.918;5.338;2022-11-04T14:20:09;14.00;99.90
40828;DHT22;26549;50.918;5.338;2022-11-04T14:25:23;13.80;99.90
40828;DHT22;26549;50.918;5.338;2022-11-04T14:28:01;13.90;99.90
40828;DHT22;26549;50.918;5.338;2022-11-04T14:30:51;14.10;99.90
40828;DHT22;26549;50.918;5.338;2022-11-04T14:34:01;14.20;99.90
40828;DHT22;26549;50.918;5.338;2022-11-04T14:36:54;14.30;99.90
40828;DHT22;26549;50.918;5.338;2022-11-04T14:39:39;14.40;99.90
40828;DHT22;26549;50.918;5.338;2022-11-04T14:42:11;14.60;99.90
40828;DHT22;26549;50.918;5.338;2022-11-04T14:44:42;14.60;99.90
40828;DHT22;26549;50.918;5.338;2022-11-04T14:52:50;14.60;99.90
40828;DHT22;26549;50.918;5.338;2022-11-04T14:55:24;14.60;99.90
40828;DHT22;26549;50.918;5.338;2022-11-04T14:57:53;14.60;99.90
40828;DHT22;26549;50.918;5.338;2022-11-04T15:03:46;14.40;99.90
40828;DHT22;26549;50.918;5.338;2022-11-04T15:06:12;14.20;99.90
40828;DHT22;26549;50.918;5.338;2022-11-04T15:08:48;14.10;99.90
40828;DHT22;26549;50.918;5.338;2022-11-04T15:11:27;14.00;99.90
40828;DHT22;26549;50.918;5.338;2022-11-04T15:14:20;14.10;99.90
40828;DHT22;26549;50.918;5.338;2022-11-04T15:16:54;14.20;99.90
40828;DHT22;26549;50.918;5.338;2022-11-04T15:19:49;14.20;99.90
40828;DHT22;26549;50.918;5.338;2022-11-04T15:22:42;14.30;99.90
40828;DHT22;26549;50.918;5.338;2022-11-04T15:25:26;14.10;99.90
40828;DHT22;26549;50.918;5.338;2022-11-04T15:28:26;13.90;99.90
40828;DHT22;26549;50.918;5.338;2022-11-04T15:33:52;13.90;99.90
40828;DHT22;26549;50.918;5.338;2022-11-04T15:36:47;14.10;99.90
40828;DHT22;26549;50.918;5.338;2022-11-04T15:39:57;14.10;99.90
40828;DHT22;26549;50.918;5.338;2022-11-04T15:42:43;14.20;99.90
40828;DHT22;26549;50.918;5.338;2022-11-04T15:45:40;14.20;99.90
40828;DHT22;26549;50.918;5.338;2022-11-04T15:48:45;14.10;99.90
40828;DHT22;26549;50.918;5.338;2022-11-04T15:51:43;14.10;99.90
40828;DHT22;26549;50.918;5.338;2022-11-04T15:54:43;14.00;99.90
40828;DHT22;26549;50.918;5.338;2022-11-04T15:57:20;14.00;99.90
40828;DHT22;26549;50.918;5.338;2022-11-04T15:59:56;14.10;99.90
40828;DHT22;26549;50.918;5.338;2022-11-04T16:02:31;14.00;99.90
40828;DHT22;26549;50.918;5.338;2022-11-04T16:05:33;13.90;99.90
40828;DHT22;26549;50.918;5.338;2022-11-04T16:08:23;13.90;99.90
40828;DHT22;26549;50.918;5.338;2022-11-04T16:11:14;13.90;99.90
40828;DHT22;26549;50.918;5.338;2022-11-04T16:13:41;13.90;99.90
40828;DHT22;26549;50.918;5.338;2022-11-04T16:16:24;13.80;99.90
40828;DHT22;26549;50.918;5.338;2022-11-04T16:18:55;13.80;99.90
40828;DHT22;26549;50.918;5.338;2022-11-04T16:21:29;13.90;99.90
40828;DHT22;26549;50.918;5.338;2022-11-04T16:24:04;13.70;99.90
40828;DHT22;26549;50.918;5.338;2022-11-04T16:26:38;13.60;99.90
40828;DHT22;26549;50.918;5.338;2022-11-04T16:29:23;13.50;99.90
40828;DHT22;26549;50.918;5.338;2022-11-04T16:32:16;13.30;99.90
40828;DHT22;26549;50.918;5.338;2022-11-04T16:34:44;13.10;99.90
40828;DHT22;26549;50.918;5.338;2022-11-04T16:37:11;13.10;99.90
40828;DHT22;26549;50.918;5.338;2022-11-04T16:39:38;12.90;99.90
40828;DHT22;26549;50.918;5.338;2022-11-04T16:42:05;12.90;99.90
40828;DHT22;26549;50.918;5.338;2022-11-04T16:44:32;12.90;99.90
40828;DHT22;26549;50.918;5.338;2022-11-04T16:46:59;12.80;99.90
40828;DHT22;26549;50.918;5.338;2022-11-04T16:49:26;12.70;99.90
40828;DHT22;26549;50.918;5.338;2022-11-04T16:51:55;12.90;99.90
40828;DHT22;26549;50.918;5.338;2022-11-04T16:54:21;13.00;99.90
40828;DHT22;26549;50.918;5.338;2022-11-04T16:56:48;12.90;99.90
40828;DHT22;26549;50.918;5.338;2022-11-04T16:59:14;13.00;99.90
40828;DHT22;26549;50.918;5.338;2022-11-04T17:01:40;13.00;99.90
40828;DHT22;26549;50.918;5.338;2022-11-04T17:04:06;13.10;99.90
40828;DHT22;26549;50.918;5.338;2022-11-04T17:06:33;13.20;99.90
40828;DHT22;26549;50.918;5.338;2022-11-04T17:08:59;13.20;99.90
40828;DHT22;26549;50.918;5.338;2022-11-04T17:11:26;13.20;99.90
40828;DHT22;26549;50.918;5.338;2022-11-04T17:13:55;13.20;99.90
40828;DHT22;26549;50.918;5.338;2022-11-04T17:16:21;13.30;99.90
40828;DHT22;26549;50.918;5.338;2022-11-04T17:18:47;13.40;99.90
40828;DHT22;26549;50.918;5.338;2022-11-04T17:21:14;13.20;99.90
40828;DHT22;26549;50.918;5.338;2022-11-04T17:23:43;13.30;99.90
40828;DHT22;26549;50.918;5.338;2022-11-04T17:26:12;13.20;99.90
40828;DHT22;26549;50.918;5.338;2022-11-04T17:28:38;13.20;99.90
40828;DHT22;26549;50.918;5.338;2022-11-04T17:31:04;13.20;99.90
40828;DHT22;26549;50.918;5.338;2022-11-04T17:33:31;13.20;99.90
40828;DHT22;26549;50.918;5.338;2022-11-04T17:35:58;13.20;99.90
40828;DHT22;26549;50.918;5.338;2022-11-04T17:38:24;13.10;99.90
40828;DHT22;26549;50.918;5.338;2022-11-04T17:40:49;13.20;99.90
40828;DHT22;26549;50.918;5.338;2022-11-04T17:43:33;13.00;99.90
40828;DHT22;26549;50.918;5.338;2022-11-04T17:46:17;13.00;99.90
40828;DHT22;26549;50.918;5.338;2022-11-04T17:49:15;13.00;99.90
40828;DHT22;26549;50.918;5.338;2022-11-04T17:51:46;13.00;99.90
40828;DHT22;26549;50.918;5.338;2022-11-04T17:54:13;13.00;99.90
40828;DHT22;26549;50.918;5.338;2022-11-04T17:56:40;13.00;99.90
40828;DHT22;26549;50.918;5.338;2022-11-04T17:59:07;12.90;99.90
40828;DHT22;26549;50.918;5.338;2022-11-04T18:01:34;13.00;99.90
40828;DHT22;26549;50.918;5.338;2022-11-04T18:04:01;12.90;99.90
40828;DHT22;26549;50.918;5.338;2022-11-04T18:06:29;13.00;99.90
40828;DHT22;26549;50.918;5.338;2022-11-04T18:08:56;13.10;99.90
40828;DHT22;26549;50.918;5.338;2022-11-04T18:11:26;13.10;99.90
40828;DHT22;26549;50.918;5.338;2022-11-04T18:14:12;13.10;99.90
40828;DHT22;26549;50.918;5.338;2022-11-04T18:16:42;13.10;99.90
40828;DHT22;26549;50.918;5.338;2022-11-04T18:19:09;13.20;99.90
40828;DHT22;26549;50.918;5.338;2022-11-04T18:21:35;13.10;99.90
40828;DHT22;26549;50.918;5.338;2022-11-04T18:24:01;13.20;99.90
40828;DHT22;26549;50.918;5.338;2022-11-04T18:26:28;13.20;99.90
40828;DHT22;26549;50.918;5.338;2022-11-04T18:28:53;13.20;99.90
40828;DHT22;26549;50.918;5.338;2022-11-04T18:31:25;13.20;99.90
40828;DHT22;26549;50.918;5.338;2022-11-04T18:33:52;13.10;99.90
40828;DHT22;26549;50.918;5.338;2022-11-04T18:36:18;13.10;99.90
40828;DHT22;26549;50.918;5.338;2022-11-04T18:38:44;13.10;99.90
40828;DHT22;26549;50.918;5.338;2022-11-04T18:41:10;13.00;99.90
40828;DHT22;26549;50.918;5.338;2022-11-04T18:43:36;13.00;99.90